sensor_id;sensor_type;location;lat;lon;timestamp;temperature;humidity
10010;DHT22;5044;48.652;9.250;2023-02-01T00:01:23;2.60;99.90
10010;DHT22;5044;48.652;9.250;2023-02-01T00:03:50;2.60;99.90
10010;DHT22;5044;48.652;9.250;2023-02-01T00:06:17;2.60;99.90
10010;DHT22;5044;48.652;9.250;2023-02-01T00:08:45;2.60;99.90
10010;DHT22;5044;48.652;9.250;2023-02-01T00:11:16;2.60;99.90
10010;DHT22;5044;48.652;9.250;2023-02-01T00:13:46;3.00;99.90
10010;DHT22;5044;48.652;9.250;2023-02-01T00:16:28;2.90;99.90
10010;DHT22;5044;48.652;9.250;2023-02-01T00:18:58;2.50;99.90
10010;DHT22;5044;48.652;9.250;2023-02-01T00:21:29;2.50;99.90
10010;DHT22;5044;48.652;9.250;2023-02-01T00:23:57;2.50;99.90
10010;DHT22;5044;48.652;9.250;2023-02-01T00:26:30;2.50;99.90
10010;DHT22;5044;48.652;9.250;2023-02-01T00:28:58;3.30;99.90
10010;DHT22;5044;48.652;9.250;2023-02-01T00:31:43;2.50;99.90
10010;DHT22;5044;48.652;9.250;2023-02-01T00:34:12;2.50;99.90
10010;DHT22;5044;48.652;9.250;2023-02-01T00:36:40;2.50;99.90
10010;DHT22;5044;48.652;9.250;2023-02-01T00:39:08;2.50;99.90
10010;DHT22;5044;48.652;9.250;2023-02-01T00:41:42;2.50;99.90
10010;DHT22;5044;48.652;9.250;2023-02-01T00:44:11;2.70;99.90
10010;DHT22;5044;48.652;9.250;2023-02-01T00:46:42;2.50;99.90
10010;DHT22;5044;48.652;9.250;2023-02-01T00:49:10;2.50;99.90
10010;DHT22;5044;48.652;9.250;2023-02-01T00:51:37;2.90;99.90
10010;DHT22;5044;48.652;9.250;2023-02-01T00:54:04;2.80;99.90
10010;DHT22;5044;48.652;9.250;2023-02-01T00:56:32;2.50;99.90
10010;DHT22;5044;48.652;9.250;2023-02-01T00:59:03;2.50;99.90
10010;DHT22;5044;48.652;9.250;2023-02-01T01:01:32;2.50;99.90
10010;DHT22;5044;48.652;9.250;2023-02-01T01:04:02;2.50;99.90
10010;DHT22;5044;48.652;9.250;2023-02-01T01:06:34;3.00;99.90
10010;DHT22;5044;48.652;9.250;2023-02-01T01:09:04;2.50;99.90
10010;DHT22;5044;48.652;9.250;2023-02-01T01:11:34;2.50;99.90
10010;DHT22;5044;48.652;9.250;2023-02-01T01:14:09;2.80;99.90
10010;DHT22;5044;48.652;9.250;2023-02-01T01:16:39;2.90;99.90
10010;DHT22;5044;48.652;9.250;2023-02-01T01:19:12;2.10;99.90
10010;DHT22;5044;48.652;9.250;2023-02-01T01:21:43;2.50;99.90
10010;DHT22;5044;48.652;9.250;2023-02-01T01:24:15;2.60;99.90
10010;DHT22;5044;48.652;9.250;2023-02-01T01:26:52;2.20;99.90
10010;DHT22;5044;48.652;9.250;2023-02-01T01:29:34;2.30;99.90
10010;DHT22;5044;48.652;9.250;2023-02-01T01:32:02;2.50;99.90
10010;DHT22;5044;48.652;9.250;2023-02-01T01:34:31;2.20;99.90
10010;DHT22;5044;48.652;9.250;2023-02-01T01:37:00;2.50;99.90
10010;DHT22;5044;48.652;9.250;2023-02-01T01:39:27;2.50;99.90
10010;DHT22;5044;48.652;9.250;2023-02-01T01:42:11;3.00;99.90
10010;DHT22;5044;48.652;9.250;2023-02-01T01:44:59;2.50;99.90
10010;DHT22;5044;48.652;9.250;2023-02-01T01:47:39;2.30;99.90
10010;DHT22;5044;48.652;9.250;2023-02-01T01:56:15;2.60;99.90
10010;DHT22;5044;48.652;9.250;2023-02-01T01:58:42;2.60;99.90
10010;DHT22;5044;48.652;9.250;2023-02-01T02:01:10;2.60;99.90
10010;DHT22;5044;48.652;9.250;2023-02-01T02:03:42;2.60;99.90
10010;DHT22;5044;48.652;9.250;2023-02-01T02:06:18;2.60;99.90
10010;DHT22;5044;48.652;9.250;2023-02-01T02:08:54;2.60;99.90
10010;DHT22;5044;48.652;9.250;2023-02-01T02:11:22;2.60;99.90
10010;DHT22;5044;48.652;9.250;2023-02-01T02:13:52;2.60;99.90
10010;DHT22;5044;48.652;9.250;2023-02-01T02:16:57;2.60;99.90
10010;DHT22;5044;48.652;9.250;2023-02-01T02:22:45;2.60;99.90
10010;DHT22;5044;48.652;9.250;2023-02-01T02:25:24;2.60;99.90
10010;DHT22;5044;48.652;9.250;2023-02-01T02:27:59;2.60;99.90
10010;DHT22;5044;48.652;9.250;2023-02-01T02:33:59;2.60;99.90
10010;DHT22;5044;48.652;9.250;2023-02-01T02:36:42;2.70;99.90
10010;DHT22;5044;48.652;9.250;2023-02-01T02:39:18;2.70;99.90
10010;DHT22;5044;48.652;9.250;2023-02-01T02:41:53;3.10;99.90
10010;DHT22;5044;48.652;9.250;2023-02-01T02:44:46;2.60;99.90
10010;DHT22;5044;48.652;9.250;2023-02-01T02:47:35;2.70;99.90
10010;DHT22;5044;48.652;9.250;2023-02-01T02:50:15;2.70;99.90
10010;DHT22;5044;48.652;9.250;2023-02-01T02:53:06;2.70;99.90
10010;DHT22;5044;48.652;9.250;2023-02-01T02:55:53;2.70;99.90
10010;DHT22;5044;48.652;9.250;2023-02-01T02:58:38;2.70;99.90
10010;DHT22;5044;48.652;9.250;2023-02-01T03:01:22;2.70;99.90
10010;DHT22;5044;48.652;9.250;2023-02-01T03:04:07;2.70;99.90
10010;DHT22;5044;48.652;9.250;2023-02-01T03:06:37;2.70;99.90
10010;DHT22;5044;48.652;9.250;2023-02-01T03:09:16;2.70;99.90
10010;DHT22;5044;48.652;9.250;2023-02-01T03:11:47;2.80;99.90
10010;DHT22;5044;48.652;9.250;2023-02-01T03:14:34;2.70;99.90
10010;DHT22;5044;48.652;9.250;2023-02-01T03:17:10;2.70;99.90
10010;DHT22;5044;48.652;9.250;2023-02-01T03:19:42;2.70;99.90
10010;DHT22;5044;48.652;9.250;2023-02-01T03:22:20;3.20;99.90
10010;DHT22;5044;48.652;9.250;2023-02-01T03:24:54;2.80;99.90
10010;DHT22;5044;48.652;9.250;2023-02-01T03:27:28;2.70;99.90
10010;DHT22;5044;48.652;9.250;2023-02-01T03:30:00;2.70;99.90
10010;DHT22;5044;48.652;9.250;2023-02-01T03:32:31;2.70;99.90
10010;DHT22;5044;48.652;9.250;2023-02-01T03:35:12;2.70;99.90
10010;DHT22;5044;48.652;9.250;2023-02-01T03:37:41;2.70;99.90
10010;DHT22;5044;48.652;9.250;2023-02-01T03:40:11;2.70;99.90
10010;DHT22;5044;48.652;9.250;2023-02-01T03:42:43;2.70;99.90
10010;DHT22;5044;48.652;9.250;2023-02-01T03:45:15;2.80;99.90
10010;DHT22;5044;48.652;9.250;2023-02-01T03:47:46;2.70;99.90
10010;DHT22;5044;48.652;9.250;2023-02-01T03:50:17;3.30;99.90
10010;DHT22;5044;48.652;9.250;2023-02-01T03:52:50;2.70;99.90
10010;DHT22;5044;48.652;9.250;2023-02-01T03:55:21;2.70;99.90
10010;DHT22;5044;48.652;9.250;2023-02-01T03:57:53;2.70;99.90
10010;DHT22;5044;48.652;9.250;2023-02-01T04:00:23;2.70;99.90
10010;DHT22;5044;48.652;9.250;2023-02-01T04:03:05;2.70;99.90
10010;DHT22;5044;48.652;9.250;2023-02-01T04:05:33;2.80;99.90
10010;DHT22;5044;48.652;9.250;2023-02-01T04:08:05;2.70;99.90
10010;DHT22;5044;48.652;9.250;2023-02-01T04:10:32;2.70;99.90
10010;DHT22;5044;48.652;9.250;2023-02-01T04:12:59;2.70;99.90
10010;DHT22;5044;48.652;9.250;2023-02-01T04:15:32;2.70;99.90
10010;DHT22;5044;48.652;9.250;2023-02-01T04:18:00;2.70;99.90
10010;DHT22;5044;48.652;9.250;2023-02-01T04:20:27;2.70;99.90
10010;DHT22;5044;48.652;9.250;2023-02-01T04:22:53;2.70;99.90
10010;DHT22;5044;48.652;9.250;2023-02-01T04:25:22;2.70;99.90
10010;DHT22;5044;48.652;9.250;2023-02-01T04:27:49;2.70;99.90
10010;DHT22;5044;48.652;9.250;2023-02-01T04:30:16;2.70;99.90
10010;DHT22;5044;48.652;9.250;2023-02-01T04:32:44;2.70;99.90
10010;DHT22;5044;48.652;9.250;2023-02-01T04:35:11;2.70;99.90
10010;DHT22;5044;48.652;9.250;2023-02-01T04:37:43;2.80;99.90
10010;DHT22;5044;48.652;9.250;2023-02-01T04:40:11;2.80;99.90
10010;DHT22;5044;48.652;9.250;2023-02-01T04:42:43;2.80;99.90
10010;DHT22;5044;48.652;9.250;2023-02-01T04:45:16;2.80;99.90
10010;DHT22;5044;48.652;9.250;2023-02-01T04:47:44;2.80;99.90
10010;DHT22;5044;48.652;9.250;2023-02-01T04:50:11;2.80;99.90
10010;DHT22;5044;48.652;9.250;2023-02-01T04:52:38;2.80;99.90
10010;DHT22;5044;48.652;9.250;2023-02-01T04:55:06;2.80;99.90
10010;DHT22;5044;48.652;9.250;2023-02-01T04:57:33;2.80;99.90
10010;DHT22;5044;48.652;9.250;2023-02-01T05:00:04;3.10;99.90
10010;DHT22;5044;48.652;9.250;2023-02-01T05:02:37;2.80;99.90
10010;DHT22;5044;48.652;9.250;2023-02-01T05:05:08;2.80;99.90
10010;DHT22;5044;48.652;9.250;2023-02-01T05:07:37;2.80;99.90
10010;DHT22;5044;48.652;9.250;2023-02-01T05:10:05;2.80;99.90
10010;DHT22;5044;48.652;9.250;2023-02-01T05:12:32;2.80;99.90
10010;DHT22;5044;48.652;9.250;2023-02-01T05:15:26;2.80;99.90
10010;DHT22;5044;48.652;9.250;2023-02-01T05:17:54;2.80;99.90
10010;DHT22;5044;48.652;9.250;2023-02-01T05:20:22;2.80;99.90
10010;DHT22;5044;48.652;9.250;2023-02-01T05:22:49;2.80;99.90
10010;DHT22;5044;48.652;9.250;2023-02-01T05:25:17;2.80;99.90
10010;DHT22;5044;48.652;9.250;2023-02-01T05:27:44;2.80;99.90
10010;DHT22;5044;48.652;9.250;2023-02-01T05:30:12;2.80;99.90
10010;DHT22;5044;48.652;9.250;2023-02-01T05:32:42;2.80;99.90
10010;DHT22;5044;48.652;9.250;2023-02-01T05:35:09;2.80;99.90
10010;DHT22;5044;48.652;9.250;2023-02-01T05:37:37;2.80;99.90
10010;DHT22;5044;48.652;9.250;2023-02-01T05:40:11;3.20;99.90
10010;DHT22;5044;48.652;9.250;2023-02-01T05:42:38;2.80;99.90
10010;DHT22;5044;48.652;9.250;2023-02-01T05:45:07;2.80;99.90
10010;DHT22;5044;48.652;9.250;2023-02-01T05:47:34;2.80;99.90
10010;DHT22;5044;48.652;9.250;2023-02-01T05:50:05;2.80;99.90
10010;DHT22;5044;48.652;9.250;2023-02-01T05:52:34;2.80;99.90
10010;DHT22;5044;48.652;9.250;2023-02-01T05:55:01;2.80;99.90
10010;DHT22;5044;48.652;9.250;2023-02-01T05:57:28;2.90;99.90
10010;DHT22;5044;48.652;9.250;2023-02-01T05:59:58;2.90;99.90
10010;DHT22;5044;48.652;9.250;2023-02-01T06:02:26;2.80;99.90
10010;DHT22;5044;48.652;9.250;2023-02-01T06:04:52;2.80;99.90
10010;DHT22;5044;48.652;9.250;2023-02-01T06:07:27;2.90;99.90
10010;DHT22;5044;48.652;9.250;2023-02-01T06:10:12;2.90;99.90
10010;DHT22;5044;48.652;9.250;2023-02-01T06:12:40;2.90;99.90
10010;DHT22;5044;48.652;9.250;2023-02-01T06:15:07;2.90;99.90
10010;DHT22;5044;48.652;9.250;2023-02-01T06:17:34;2.90;99.90
10010;DHT22;5044;48.652;9.250;2023-02-01T06:20:01;2.90;99.90
10010;DHT22;5044;48.652;9.250;2023-02-01T06:22:30;2.80;99.90
10010;DHT22;5044;48.652;9.250;2023-02-01T06:25:01;2.80;99.90
10010;DHT22;5044;48.652;9.250;2023-02-01T06:27:28;2.80;99.90
10010;DHT22;5044;48.652;9.250;2023-02-01T06:29:55;2.80;99.90
10010;DHT22;5044;48.652;9.250;2023-02-01T06:32:23;3.50;99.90
10010;DHT22;5044;48.652;9.250;2023-02-01T06:34:51;3.40;99.90
10010;DHT22;5044;48.652;9.250;2023-02-01T06:37:18;2.70;99.90
10010;DHT22;5044;48.652;9.250;2023-02-01T06:39:47;2.70;99.90
10010;DHT22;5044;48.652;9.250;2023-02-01T06:42:14;2.70;99.90
10010;DHT22;5044;48.652;9.250;2023-02-01T06:44:42;2.70;99.90
10010;DHT22;5044;48.652;9.250;2023-02-01T06:47:12;2.70;99.90
10010;DHT22;5044;48.652;9.250;2023-02-01T06:49:40;2.70;99.90
10010;DHT22;5044;48.652;9.250;2023-02-01T06:52:13;2.70;99.90
10010;DHT22;5044;48.652;9.250;2023-02-01T06:54:40;2.70;99.90
10010;DHT22;5044;48.652;9.250;2023-02-01T06:57:10;2.70;99.90
10010;DHT22;5044;48.652;9.250;2023-02-01T06:59:37;2.70;99.90
10010;DHT22;5044;48.652;9.250;2023-02-01T07:02:04;2.70;99.90
10010;DHT22;5044;48.652;9.250;2023-02-01T07:04:32;2.70;99.90
10010;DHT22;5044;48.652;9.250;2023-02-01T07:07:00;2.70;99.90
10010;DHT22;5044;48.652;9.250;2023-02-01T07:09:31;2.70;99.90
10010;DHT22;5044;48.652;9.250;2023-02-01T07:12:01;2.80;99.90
10010;DHT22;5044;48.652;9.250;2023-02-01T07:14:32;2.70;99.90
10010;DHT22;5044;48.652;9.250;2023-02-01T07:16:59;2.70;99.90
10010;DHT22;5044;48.652;9.250;2023-02-01T07:19:27;2.70;99.90
10010;DHT22;5044;48.652;9.250;2023-02-01T07:21:55;2.70;99.90
10010;DHT22;5044;48.652;9.250;2023-02-01T07:24:22;2.80;99.90
10010;DHT22;5044;48.652;9.250;2023-02-01T07:26:49;2.80;99.90
10010;DHT22;5044;48.652;9.250;2023-02-01T07:29:16;2.80;99.90
10010;DHT22;5044;48.652;9.250;2023-02-01T07:31:50;2.80;99.90
10010;DHT22;5044;48.652;9.250;2023-02-01T07:34:17;3.10;99.90
10010;DHT22;5044;48.652;9.250;2023-02-01T07:36:44;2.80;99.90
10010;DHT22;5044;48.652;9.250;2023-02-01T07:39:11;2.80;99.90
10010;DHT22;5044;48.652;9.250;2023-02-01T07:41:38;2.80;99.90
10010;DHT22;5044;48.652;9.250;2023-02-01T07:44:05;2.80;99.90
10010;DHT22;5044;48.652;9.250;2023-02-01T07:46:34;2.90;99.90
10010;DHT22;5044;48.652;9.250;2023-02-01T07:49:15;2.80;99.90
10010;DHT22;5044;48.652;9.250;2023-02-01T07:51:55;2.80;99.90
10010;DHT22;5044;48.652;9.250;2023-02-01T07:54:24;2.90;99.90
10010;DHT22;5044;48.652;9.250;2023-02-01T07:56:52;3.40;99.90
10010;DHT22;5044;48.652;9.250;2023-02-01T07:59:23;2.90;99.90
10010;DHT22;5044;48.652;9.250;2023-02-01T08:18:23;2.80;99.90
10010;DHT22;5044;48.652;9.250;2023-02-01T08:27:55;3.00;99.90
10010;DHT22;5044;48.652;9.250;2023-02-01T08:31:02;3.10;99.90
10010;DHT22;5044;48.652;9.250;2023-02-01T08:35:21;3.20;99.90
10010;DHT22;5044;48.652;9.250;2023-02-01T08:37:36;3.00;99.90
10010;DHT22;5044;48.652;9.250;2023-02-01T08:40:32;3.10;99.90
10010;DHT22;5044;48.652;9.250;2023-02-01T08:44:00;3.60;99.90
10010;DHT22;5044;48.652;9.250;2023-02-01T08:46:43;2.80;99.90
10010;DHT22;5044;48.652;9.250;2023-02-01T08:49:13;3.10;99.90
10010;DHT22;5044;48.652;9.250;2023-02-01T08:51:51;3.20;99.90
10010;DHT22;5044;48.652;9.250;2023-02-01T08:54:27;3.60;99.90
10010;DHT22;5044;48.652;9.250;2023-02-01T08:57:05;3.10;99.90
10010;DHT22;5044;48.652;9.250;2023-02-01T08:59:49;3.30;99.90
10010;DHT22;5044;48.652;9.250;2023-02-01T09:02:34;3.10;99.90
10010;DHT22;5044;48.652;9.250;2023-02-01T09:05:36;3.00;99.90
10010;DHT22;5044;48.652;9.250;2023-02-01T09:08:17;3.10;99.90
10010;DHT22;5044;48.652;9.250;2023-02-01T09:11:13;3.30;99.90
10010;DHT22;5044;48.652;9.250;2023-02-01T09:14:20;3.60;99.90
10010;DHT22;5044;48.652;9.250;2023-02-01T09:17:48;3.40;99.90
10010;DHT22;5044;48.652;9.250;2023-02-01T09:24:06;3.40;99.90
10010;DHT22;5044;48.652;9.250;2023-02-01T09:26:47;3.40;99.90
10010;DHT22;5044;48.652;9.250;2023-02-01T09:29:14;4.00;99.90
10010;DHT22;5044;48.652;9.250;2023-02-01T09:31:41;3.90;99.90
10010;DHT22;5044;48.652;9.250;2023-02-01T09:34:08;3.40;99.90
10010;DHT22;5044;48.652;9.250;2023-02-01T09:36:36;3.40;99.90
10010;DHT22;5044;48.652;9.250;2023-02-01T09:39:04;3.40;99.90
10010;DHT22;5044;48.652;9.250;2023-02-01T09:41:39;3.50;99.90
10010;DHT22;5044;48.652;9.250;2023-02-01T09:44:52;3.50;99.90
10010;DHT22;5044;48.652;9.250;2023-02-01T09:47:36;3.50;99.90
10010;DHT22;5044;48.652;9.250;2023-02-01T09:50:18;3.50;99.90
10010;DHT22;5044;48.652;9.250;2023-02-01T09:53:14;3.30;99.90
10010;DHT22;5044;48.652;9.250;2023-02-01T09:59:23;3.90;99.90
10010;DHT22;5044;48.652;9.250;2023-02-01T10:01:53;3.80;99.90
10010;DHT22;5044;48.652;9.250;2023-02-01T10:04:20;4.10;99.90
10010;DHT22;5044;48.652;9.250;2023-02-01T10:07:09;4.10;99.90
10010;DHT22;5044;48.652;9.250;2023-02-01T10:09:59;3.90;99.90
10010;DHT22;5044;48.652;9.250;2023-02-01T10:19:57;3.90;99.90
10010;DHT22;5044;48.652;9.250;2023-02-01T10:22:45;3.90;99.90
10010;DHT22;5044;48.652;9.250;2023-02-01T10:26:03;3.90;99.90
10010;DHT22;5044;48.652;9.250;2023-02-01T10:28:58;4.00;99.90
10010;DHT22;5044;48.652;9.250;2023-02-01T10:35:15;4.10;99.90
10010;DHT22;5044;48.652;9.250;2023-02-01T10:38:01;4.10;99.90
10010;DHT22;5044;48.652;9.250;2023-02-01T10:40:45;4.90;99.90
10010;DHT22;5044;48.652;9.250;2023-02-01T10:43:13;4.10;99.90
10010;DHT22;5044;48.652;9.250;2023-02-01T10:46:15;4.10;99.90
10010;DHT22;5044;48.652;9.250;2023-02-01T10:49:28;4.00;99.90
10010;DHT22;5044;48.652;9.250;2023-02-01T10:52:42;4.30;99.90
10010;DHT22;5044;48.652;9.250;2023-02-01T10:55:55;4.20;99.90
10010;DHT22;5044;48.652;9.250;2023-02-01T10:58:59;4.20;99.90
10010;DHT22;5044;48.652;9.250;2023-02-01T11:01:43;4.10;99.90
10010;DHT22;5044;48.652;9.250;2023-02-01T11:04:43;4.20;99.90
10010;DHT22;5044;48.652;9.250;2023-02-01T11:08:00;4.10;99.90
10010;DHT22;5044;48.652;9.250;2023-02-01T11:11:19;4.20;99.90
10010;DHT22;5044;48.652;9.250;2023-02-01T11:14:17;4.30;99.90
10010;DHT22;5044;48.652;9.250;2023-02-01T11:17:26;4.20;99.90
10010;DHT22;5044;48.652;9.250;2023-02-01T11:20:38;4.40;99.90
10010;DHT22;5044;48.652;9.250;2023-02-01T11:23:35;4.70;99.90
10010;DHT22;5044;48.652;9.250;2023-02-01T11:26:31;4.80;99.90
10010;DHT22;5044;48.652;9.250;2023-02-01T11:29:24;4.50;99.90
10010;DHT22;5044;48.652;9.250;2023-02-01T11:35:15;4.60;99.90
10010;DHT22;5044;48.652;9.250;2023-02-01T11:38:27;4.70;99.90
10010;DHT22;5044;48.652;9.250;2023-02-01T11:44:39;4.70;99.90
10010;DHT22;5044;48.652;9.250;2023-02-01T11:47:25;4.20;99.90
10010;DHT22;5044;48.652;9.250;2023-02-01T11:51:58;4.80;99.90
10010;DHT22;5044;48.652;9.250;2023-02-01T11:53:40;5.10;99.90
10010;DHT22;5044;48.652;9.250;2023-02-01T12:03:45;4.90;99.90
10010;DHT22;5044;48.652;9.250;2023-02-01T12:06:56;4.90;99.90
10010;DHT22;5044;48.652;9.250;2023-02-01T12:10:21;4.60;99.90
10010;DHT22;5044;48.652;9.250;2023-02-01T12:13:27;4.90;99.90
10010;DHT22;5044;48.652;9.250;2023-02-01T12:16:37;4.80;99.90
10010;DHT22;5044;48.652;9.250;2023-02-01T12:19:58;4.90;99.90
10010;DHT22;5044;48.652;9.250;2023-02-01T12:23:19;4.90;99.90
10010;DHT22;5044;48.652;9.250;2023-02-01T12:29:44;4.90;99.90
10010;DHT22;5044;48.652;9.250;2023-02-01T12:32:59;5.10;99.90
10010;DHT22;5044;48.652;9.250;2023-02-01T12:36:02;5.40;99.90
10010;DHT22;5044;48.652;9.250;2023-02-01T12:39:20;5.10;99.90
10010;DHT22;5044;48.652;9.250;2023-02-01T12:42:26;4.80;99.90
10010;DHT22;5044;48.652;9.250;2023-02-01T12:45:19;4.70;99.90
10010;DHT22;5044;48.652;9.250;2023-02-01T12:48:32;5.00;99.90
10010;DHT22;5044;48.652;9.250;2023-02-01T12:51:29;4.80;99.90
10010;DHT22;5044;48.652;9.250;2023-02-01T12:54:06;4.60;99.90
10010;DHT22;5044;48.652;9.250;2023-02-01T12:56:51;4.70;99.90
10010;DHT22;5044;48.652;9.250;2023-02-01T12:59:41;4.70;99.90
10010;DHT22;5044;48.652;9.250;2023-02-01T13:02:28;4.80;99.90
10010;DHT22;5044;48.652;9.250;2023-02-01T13:05:20;4.80;99.90
10010;DHT22;5044;48.652;9.250;2023-02-01T13:08:17;4.80;99.90
10010;DHT22;5044;48.652;9.250;2023-02-01T13:11:24;4.70;99.90
10010;DHT22;5044;48.652;9.250;2023-02-01T13:14:28;4.70;99.90
10010;DHT22;5044;48.652;9.250;2023-02-01T13:17:12;4.60;99.90
10010;DHT22;5044;48.652;9.250;2023-02-01T13:19:59;4.60;99.90
10010;DHT22;5044;48.652;9.250;2023-02-01T13:23:02;4.60;99.90
10010;DHT22;5044;48.652;9.250;2023-02-01T13:26:01;4.60;99.90
10010;DHT22;5044;48.652;9.250;2023-02-01T13:28:42;4.20;99.90
10010;DHT22;5044;48.652;9.250;2023-02-01T13:31:32;4.80;99.90
10010;DHT22;5044;48.652;9.250;2023-02-01T13:34:55;4.60;99.90
10010;DHT22;5044;48.652;9.250;2023-02-01T13:40:46;5.10;99.90
10010;DHT22;5044;48.652;9.250;2023-02-01T13:43:22;4.60;99.90
10010;DHT22;5044;48.652;9.250;2023-02-01T13:45:50;4.80;99.90
10010;DHT22;5044;48.652;9.250;2023-02-01T13:48:33;4.80;99.90
10010;DHT22;5044;48.652;9.250;2023-02-01T13:51:07;4.50;99.90
10010;DHT22;5044;48.652;9.250;2023-02-01T13:53:47;4.30;99.90
10010;DHT22;5044;48.652;9.250;2023-02-01T13:56:28;4.30;99.90
10010;DHT22;5044;48.652;9.250;2023-02-01T14:02:59;4.50;99.90
10010;DHT22;5044;48.652;9.250;2023-02-01T14:06:05;4.60;99.90
10010;DHT22;5044;48.652;9.250;2023-02-01T14:09:11;4.50;99.90
10010;DHT22;5044;48.652;9.250;2023-02-01T14:11:42;5.00;99.90
10010;DHT22;5044;48.652;9.250;2023-02-01T14:14:44;5.10;99.90
10010;DHT22;5044;48.652;9.250;2023-02-01T14:17:37;5.30;99.90
10010;DHT22;5044;48.652;9.250;2023-02-01T14:23:29;4.50;99.90
10010;DHT22;5044;48.652;9.250;2023-02-01T14:26:14;4.50;99.90
10010;DHT22;5044;48.652;9.250;2023-02-01T14:28:44;4.50;99.90
10010;DHT22;5044;48.652;9.250;2023-02-01T14:31:19;4.50;99.90
10010;DHT22;5044;48.652;9.250;2023-02-01T14:33:55;4.50;99.90
10010;DHT22;5044;48.652;9.250;2023-02-01T14:36:23;4.50;99.90
10010;DHT22;5044;48.652;9.250;2023-02-01T14:38:51;4.70;99.90
10010;DHT22;5044;48.652;9.250;2023-02-01T14:41:29;4.40;99.90
10010;DHT22;5044;48.652;9.250;2023-02-01T14:44:26;4.50;99.90
10010;DHT22;5044;48.652;9.250;2023-02-01T14:50:21;4.50;99.90
10010;DHT22;5044;48.652;9.250;2023-02-01T14:52:58;4.40;99.90
10010;DHT22;5044;48.652;9.250;2023-02-01T14:55:40;4.80;99.90
10010;DHT22;5044;48.652;9.250;2023-02-01T14:58:15;4.50;99.90
10010;DHT22;5044;48.652;9.250;2023-02-01T15:00:51;5.10;99.90
10010;DHT22;5044;48.652;9.250;2023-02-01T15:03:43;4.40;99.90
10010;DHT22;5044;48.652;9.250;2023-02-01T15:06:32;4.70;99.90
10010;DHT22;5044;48.652;9.250;2023-02-01T15:09:03;4.50;99.90
10010;DHT22;5044;48.652;9.250;2023-02-01T15:11:30;4.30;99.90
10010;DHT22;5044;48.652;9.250;2023-02-01T15:13:57;4.30;99.90
10010;DHT22;5044;48.652;9.250;2023-02-01T15:16:27;4.30;99.90
10010;DHT22;5044;48.652;9.250;2023-02-01T15:19:07;4.30;99.90
10010;DHT22;5044;48.652;9.250;2023-02-01T15:21:43;4.30;99.90
10010;DHT22;5044;48.652;9.250;2023-02-01T15:24:12;4.40;99.90
10010;DHT22;5044;48.652;9.250;2023-02-01T15:26:39;4.30;99.90
10010;DHT22;5044;48.652;9.250;2023-02-01T15:29:10;4.60;99.90
10010;DHT22;5044;48.652;9.250;2023-02-01T15:31:41;4.50;99.90
10010;DHT22;5044;48.652;9.250;2023-02-01T15:34:08;4.80;99.90
10010;DHT22;5044;48.652;9.250;2023-02-01T15:36:35;4.30;99.90
10010;DHT22;5044;48.652;9.250;2023-02-01T15:39:19;4.30;99.90
10010;DHT22;5044;48.652;9.250;2023-02-01T15:41:50;4.30;99.90
10010;DHT22;5044;48.652;9.250;2023-02-01T15:44:29;4.20;99.90
10010;DHT22;5044;48.652;9.250;2023-02-01T15:46:58;4.30;99.90
10010;DHT22;5044;48.652;9.250;2023-02-01T15:49:30;4.30;99.90
10010;DHT22;5044;48.652;9.250;2023-02-01T15:51:59;4.70;99.90
10010;DHT22;5044;48.652;9.250;2023-02-01T15:54:29;4.30;99.90
10010;DHT22;5044;48.652;9.250;2023-02-01T15:57:00;4.30;99.90
10010;DHT22;5044;48.652;9.250;2023-02-01T15:59:31;4.30;99.90
10010;DHT22;5044;48.652;9.250;2023-02-01T16:02:00;4.20;99.90
10010;DHT22;5044;48.652;9.250;2023-02-01T16:04:28;4.30;99.90
10010;DHT22;5044;48.652;9.250;2023-02-01T16:06:58;4.20;99.90
10010;DHT22;5044;48.652;9.250;2023-02-01T16:12:46;4.10;99.90
10010;DHT22;5044;48.652;9.250;2023-02-01T16:19:54;4.20;99.90
10010;DHT22;5044;48.652;9.250;2023-02-01T16:22:22;3.60;99.90
10010;DHT22;5044;48.652;9.250;2023-02-01T16:24:49;4.20;99.90
10010;DHT22;5044;48.652;9.250;2023-02-01T16:27:16;4.30;99.90
10010;DHT22;5044;48.652;9.250;2023-02-01T16:29:43;4.20;99.90
10010;DHT22;5044;48.652;9.250;2023-02-01T16:32:15;4.70;99.90
10010;DHT22;5044;48.652;9.250;2023-02-01T16:34:42;4.20;99.90
10010;DHT22;5044;48.652;9.250;2023-02-01T16:37:13;4.10;99.90
10010;DHT22;5044;48.652;9.250;2023-02-01T16:39:40;4.10;99.90
10010;DHT22;5044;48.652;9.250;2023-02-01T16:42:11;4.10;99.90
10010;DHT22;5044;48.652;9.250;2023-02-01T16:44:38;4.30;99.90
10010;DHT22;5044;48.652;9.250;2023-02-01T16:47:11;3.80;99.90
10010;DHT22;5044;48.652;9.250;2023-02-01T16:49:40;4.20;99.90
10010;DHT22;5044;48.652;9.250;2023-02-01T16:52:13;4.30;99.90
10010;DHT22;5044;48.652;9.250;2023-02-01T16:54:41;4.10;99.90
10010;DHT22;5044;48.652;9.250;2023-02-01T16:57:11;4.10;99.90
10010;DHT22;5044;48.652;9.250;2023-02-01T16:59:39;4.50;99.90
10010;DHT22;5044;48.652;9.250;2023-02-01T17:02:09;4.20;99.90
10010;DHT22;5044;48.652;9.250;2023-02-01T17:04:36;3.70;99.90
10010;DHT22;5044;48.652;9.250;2023-02-01T17:07:03;4.10;99.90
10010;DHT22;5044;48.652;9.250;2023-02-01T17:09:35;4.50;99.90
10010;DHT22;5044;48.652;9.250;2023-02-01T17:12:03;4.10;99.90
10010;DHT22;5044;48.652;9.250;2023-02-01T17:14:31;4.00;99.90
10010;DHT22;5044;48.652;9.250;2023-02-01T17:16:59;4.50;99.90
10010;DHT22;5044;48.652;9.250;2023-02-01T17:22:53;4.00;99.90
10010;DHT22;5044;48.652;9.250;2023-02-01T17:25:22;4.00;99.90
10010;DHT22;5044;48.652;9.250;2023-02-01T17:27:50;4.00;99.90
10010;DHT22;5044;48.652;9.250;2023-02-01T17:30:17;4.00;99.90
10010;DHT22;5044;48.652;9.250;2023-02-01T17:32:44;4.30;99.90
10010;DHT22;5044;48.652;9.250;2023-02-01T17:35:18;4.20;99.90
10010;DHT22;5044;48.652;9.250;2023-02-01T17:37:49;3.90;99.90
10010;DHT22;5044;48.652;9.250;2023-02-01T17:40:17;4.00;99.90
10010;DHT22;5044;48.652;9.250;2023-02-01T17:42:45;4.00;99.90
10010;DHT22;5044;48.652;9.250;2023-02-01T17:45:22;4.20;99.90
10010;DHT22;5044;48.652;9.250;2023-02-01T17:47:49;4.30;99.90
10010;DHT22;5044;48.652;9.250;2023-02-01T17:50:16;4.30;99.90
10010;DHT22;5044;48.652;9.250;2023-02-01T17:52:43;4.00;99.90
10010;DHT22;5044;48.652;9.250;2023-02-01T17:55:15;4.30;99.90
10010;DHT22;5044;48.652;9.250;2023-02-01T17:57:45;4.40;99.90
10010;DHT22;5044;48.652;9.250;2023-02-01T18:00:13;3.90;99.90
10010;DHT22;5044;48.652;9.250;2023-02-01T18:02:42;3.90;99.90
10010;DHT22;5044;48.652;9.250;2023-02-01T18:05:14;4.20;99.90
10010;DHT22;5044;48.652;9.250;2023-02-01T18:07:42;3.90;99.90
10010;DHT22;5044;48.652;9.250;2023-02-01T18:10:10;3.90;99.90
10010;DHT22;5044;48.652;9.250;2023-02-01T18:12:37;3.90;99.90
10010;DHT22;5044;48.652;9.250;2023-02-01T18:15:16;3.80;99.90
10010;DHT22;5044;48.652;9.250;2023-02-01T18:17:44;3.70;99.90
10010;DHT22;5044;48.652;9.250;2023-02-01T18:20:19;3.80;99.90
10010;DHT22;5044;48.652;9.250;2023-02-01T18:22:47;3.30;99.90
10010;DHT22;5044;48.652;9.250;2023-02-01T18:25:19;3.70;99.90
10010;DHT22;5044;48.652;9.250;2023-02-01T18:35:59;3.80;99.90
10010;DHT22;5044;48.652;9.250;2023-02-01T18:42:10;3.80;99.90
10010;DHT22;5044;48.652;9.250;2023-02-01T18:48:51;3.80;99.90
10010;DHT22;5044;48.652;9.250;2023-02-01T18:55:09;3.70;99.90
10010;DHT22;5044;48.652;9.250;2023-02-01T19:08:04;3.70;99.90
10010;DHT22;5044;48.652;9.250;2023-02-01T19:50:57;4.10;99.90
10010;DHT22;5044;48.652;9.250;2023-02-01T19:53:33;3.90;99.90
10010;DHT22;5044;48.652;9.250;2023-02-01T19:56:05;3.80;99.90